Time;durP1;ratioP1;P1;durP2;ratioP2;P2;SDS_P1;SDS_P2;PMS_P1;PMS_P2;Temp;Humidity;BMP_temperature;BMP_pressure;BME280_temperature;BME280_humidity;BME280_pressure;Samples;Min_cycle;Max_cycle;Signal;HPM_P1;HPM_P2
2023/12/19 04:37:42;;;;;;;1.80;1.20;;;;;;;;;;5041933;27;20478;-79
2023/12/19 04:40:07;;;;;;;4.05;2.20;;;;;;;;;;5046424;28;20095;-79
2023/12/19 04:42:33;;;;;;;;;;;;;;;;;;5048057;28;20460;-79
2023/12/19 04:44:58;;;;;;;2.08;1.45;;;;;;;;;;5038240;28;19913;-79
2023/12/19 04:47:23;;;;;;;1.70;1.20;;;;;;;;;;5046211;28;20032;-79
2023/12/19 04:49:49;;;;;;;;;;;;;;;;;;5046851;28;20025;-78
2023/12/19 04:52:14;;;;;;;2.17;1.05;;;;;;;;;;5047871;28;19909;-77
2023/12/19 04:54:40;;;;;;;1.98;1.30;;;;;;;;;;5045854;28;20539;-78
2023/12/19 04:57:06;;;;;;;2.85;1.30;;;;;;;;;;5036749;28;20119;-78
2023/12/19 04:59:32;;;;;;;2.28;1.50;;;;;;;;;;5051186;28;20037;-79
2023/12/19 05:01:57;;;;;;;;;;;;;;;;;;5044410;28;20030;-77
2023/12/19 05:04:23;;;;;;;2.00;1.20;;;;;;;;;;5046367;28;19913;-78
2023/12/19 05:06:48;;;;;;;2.13;1.40;;;;;;;;;;5046246;28;20159;-78
2023/12/19 05:09:13;;;;;;;1.58;1.10;;;;;;;;;;5046954;28;20848;-78
2023/12/19 05:11:41;;;;;;;1.88;1.17;;;;;;;;;;5042483;28;20413;-77
2023/12/19 05:14:06;;;;;;;2.00;1.38;;;;;;;;;;5029860;28;20032;-78
2023/12/19 05:16:32;;;;;;;;;;;;;;;;;;5046322;28;20026;-78
2023/12/19 05:18:57;;;;;;;1.95;1.20;;;;;;;;;;5047147;28;20007;-78
2023/12/19 05:21:23;;;;;;;1.70;1.20;;;;;;;;;;5045853;28;20022;-78
2023/12/19 05:23:48;;;;;;;1.55;1.00;;;;;;;;;;5047181;28;20176;-78
2023/12/19 05:26:13;;;;;;;1.90;1.05;;;;;;;;;;5040494;28;20033;-78
2023/12/19 05:28:39;;;;;;;1.67;1.17;;;;;;;;;;5046901;28;20029;-78
2023/12/19 05:31:05;;;;;;;2.28;1.30;;;;;;;;;;5028688;28;20032;-78
2023/12/19 05:33:31;;;;;;;2.22;1.30;;;;;;;;;;5046458;28;20049;-78
2023/12/19 05:35:57;;;;;;;1.85;1.33;;;;;;;;;;5045132;28;20068;-78
2023/12/19 05:38:22;;;;;;;;;;;;;;;;;;5046866;28;20480;-78
2023/12/19 05:40:48;;;;;;;2.10;1.25;;;;;;;;;;5046199;28;19909;-78
2023/12/19 05:43:14;;;;;;;2.35;1.23;;;;;;;;;;5045100;28;20033;-77
2023/12/19 05:45:39;;;;;;;2.13;1.33;;;;;;;;;;5026329;28;20072;-78
2023/12/19 05:48:05;;;;;;;6.45;1.30;;;;;;;;;;5037515;28;20087;-77
2023/12/19 05:50:31;;;;;;;2.92;1.40;;;;;;;;;;5012990;28;20036;-78
2023/12/19 05:52:56;;;;;;;;;;;;;;;;;;5026445;28;20481;-79
2023/12/19 05:55:22;;;;;;;3.55;1.60;;;;;;;;;;5032952;28;19913;-79
2023/12/19 05:57:47;;;;;;;5.07;1.67;;;;;;;;;;5015305;28;20447;-78
2023/12/19 06:00:13;;;;;;;;;;;;;;;;;;5015017;28;20108;-77
2023/12/19 06:02:38;;;;;;;2.55;1.70;;;;;;;;;;5032981;28;20219;-79
2023/12/19 06:05:07;;;;;;;3.00;1.70;;;;;;;;;;5031125;28;20033;-79
2023/12/19 06:07:36;;;;;;;4.25;2.10;;;;;;;;;;5032504;28;20413;-77
2023/12/19 06:10:02;;;;;;;2.60;1.70;;;;;;;;;;5030855;28;20022;-77
2023/12/19 06:12:28;;;;;;;2.80;1.83;;;;;;;;;;5031432;28;20055;-78
2023/12/19 06:14:53;;;;;;;;;;;;;;;;;;5032624;28;20052;-78
2023/12/19 06:17:19;;;;;;;2.92;1.60;;;;;;;;;;5032459;28;19917;-79
2023/12/19 06:19:44;;;;;;;2.10;1.50;;;;;;;;;;5032162;28;20025;-79
2023/12/19 06:22:10;;;;;;;2.28;1.45;;;;;;;;;;5032516;28;20040;-76
2023/12/19 06:24:35;;;;;;;;;;;;;;;;;;5032710;28;20082;-78
2023/12/19 06:27:01;;;;;;;3.20;1.70;;;;;;;;;;5032429;28;20023;-77
2023/12/19 06:29:26;;;;;;;2.97;1.73;;;;;;;;;;5030275;28;20025;-79
2023/12/19 06:31:52;;;;;;;;;;;;;;;;;;5031176;28;20041;-79
2023/12/19 06:34:17;;;;;;;2.60;1.50;;;;;;;;;;5032102;28;19913;-79
2023/12/19 06:36:44;;;;;;;3.40;1.48;;;;;;;;;;5014431;28;20134;-79
2023/12/19 06:39:10;;;;;;;3.08;1.70;;;;;;;;;;5032173;28;20404;-79
2023/12/19 06:41:35;;;;;;;;;;;;;;;;;;5032583;28;20041;-79
2023/12/19 06:44:00;;;;;;;2.75;1.25;;;;;;;;;;5028926;28;19909;-78
2023/12/19 06:46:26;;;;;;;2.20;1.25;;;;;;;;;;5029576;28;20048;-78
2023/12/19 06:48:51;;;;;;;1.98;1.38;;;;;;;;;;5030687;28;20502;-78
2023/12/19 06:51:26;;;;;;;2.80;1.40;;;;;;;;;;5030383;28;20033;-78
2023/12/19 06:53:53;;;;;;;2.50;1.60;;;;;;;;;;5030211;28;20029;-77
2023/12/19 06:56:18;;;;;;;4.55;1.90;;;;;;;;;;5030859;28;20037;-78
2023/12/19 06:58:44;;;;;;;;;;;;;;;;;;5026455;28;20041;-78
2023/12/19 07:01:09;;;;;;;2.38;1.52;;;;;;;;;;5020943;28;19945;-78
2023/12/19 07:03:35;;;;;;;3.05;1.60;;;;;;;;;;5030144;28;20045;-78
2023/12/19 07:06:00;;;;;;;2.65;1.85;;;;;;;;;;5031446;28;20040;-78
2023/12/19 07:08:26;;;;;;;2.95;1.70;;;;;;;;;;5031004;28;20033;-78
2023/12/19 07:10:52;;;;;;;3.20;2.13;;;;;;;;;;5031419;28;20040;-78
2023/12/19 07:13:17;;;;;;;3.17;2.00;;;;;;;;;;5029922;28;20040;-78
2023/12/19 07:15:43;;;;;;;4.95;2.80;;;;;;;;;;5031648;28;20488;-78
2023/12/19 07:18:08;;;;;;;;;;;;;;;;;;5014189;28;20037;-78
2023/12/19 07:20:33;;;;;;;5.03;2.80;;;;;;;;;;5031265;28;19909;-78
2023/12/19 07:22:59;;;;;;;5.15;2.58;;;;;;;;;;5031355;28;20399;-78
2023/12/19 07:25:25;;;;;;;;;;;;;;;;;;5031526;28;20068;-78
2023/12/19 07:27:50;;;;;;;4.72;2.60;;;;;;;;;;5048461;28;19913;-78
2023/12/19 07:30:15;;;;;;;4.30;3.08;;;;;;;;;;5030058;28;20433;-78
2023/12/19 07:32:41;;;;;;;4.03;2.80;;;;;;;;;;5030991;28;20079;-78
2023/12/19 07:35:07;;;;;;;3.25;2.15;;;;;;;;;;5031078;28;20029;-78
2023/12/19 07:37:32;;;;;;;6.00;2.58;;;;;;;;;;5026490;28;20180;-78
2023/12/19 07:39:59;;;;;;;4.30;2.60;;;;;;;;;;5031221;28;20033;-78
2023/12/19 07:42:24;;;;;;;4.13;2.50;;;;;;;;;;5030572;28;20034;-79
2023/12/19 07:44:51;;;;;;;;;;;;;;;;;;5031381;28;20534;-79
2023/12/19 07:47:17;;;;;;;3.45;2.35;;;;;;;;;;5030384;28;20364;-78
2023/12/19 07:49:42;;;;;;;;;;;;;;;;;;5010266;28;20064;-78
2023/12/19 07:52:08;;;;;;;3.55;1.90;;;;;;;;;;5028428;28;19919;-78
2023/12/19 07:54:33;;;;;;;3.28;1.85;;;;;;;;;;5030977;28;20542;-78
2023/12/19 07:56:59;;;;;;;4.63;2.03;;;;;;;;;;5024257;28;20059;-79
2023/12/19 07:59:24;;;;;;;3.35;2.00;;;;;;;;;;5020013;28;20064;-79
2023/12/19 08:01:50;;;;;;;3.75;1.95;;;;;;;;;;5027816;28;20071;-78
2023/12/19 08:04:15;;;;;;;;;;;;;;;;;;5029985;28;20451;-78
2023/12/19 08:06:41;;;;;;;4.13;2.63;;;;;;;;;;5030558;28;19921;-79
2023/12/19 08:09:10;;;;;;;;;;;;;;;;;;5030743;28;20034;-79
2023/12/19 08:11:36;;;;;;;4.20;2.72;;;;;;;;;;5030001;28;19913;-79
2023/12/19 08:14:01;;;;;;;;;;;;;;;;;;5009863;28;20127;-79
2023/12/19 08:16:26;;;;;;;7.03;4.43;;;;;;;;;;5028116;28;19920;-79
2023/12/19 08:18:52;;;;;;;6.72;4.57;;;;;;;;;;5029359;28;20047;-79
2023/12/19 08:21:17;;;;;;;;;;;;;;;;;;5012020;28;20033;-77
2023/12/19 08:23:45;;;;;;;3.70;2.65;;;;;;;;;;5029398;28;19909;-78
2023/12/19 08:26:10;;;;;;;3.65;2.50;;;;;;;;;;5029869;28;20447;-79
2023/12/19 08:28:35;;;;;;;;;;;;;;;;;;5028922;28;20064;-78
2023/12/19 08:31:03;;;;;;;3.38;2.08;;;;;;;;;;5029245;28;20007;-77
2023/12/19 08:33:28;;;;;;;3.65;2.10;;;;;;;;;;5030462;28;20079;-78
2023/12/19 08:35:54;;;;;;;;;;;;;;;;;;5029107;28;20053;-79
2023/12/19 08:38:19;;;;;;;3.63;2.20;;;;;;;;;;5029438;28;19963;-78
2023/12/19 08:40:45;;;;;;;3.47;2.00;;;;;;;;;;5019124;28;20472;-79
2023/12/19 08:43:11;;;;;;;3.22;2.17;;;;;;;;;;5022613;28;20025;-79
2023/12/19 08:45:36;;;;;;;3.25;1.80;;;;;;;;;;5030094;28;20072;-78
2023/12/19 08:48:03;;;;;;;3.63;2.20;;;;;;;;;;5028582;28;20064;-78
2023/12/19 08:50:29;;;;;;;5.68;2.20;;;;;;;;;;5028601;28;20052;-78
2023/12/19 08:52:55;;;;;;;;;;;;;;;;;;5024274;28;20102;-78
2023/12/19 08:55:20;;;;;;;3.08;2.22;;;;;;;;;;5022829;28;20015;-79
2023/12/19 08:57:45;;;;;;;;;;;;;;;;;;5013014;28;20536;-78
2023/12/19 09:00:12;;;;;;;2.70;1.92;;;;;;;;;;5024243;28;19913;-79
2023/12/19 09:02:42;;;;;;;3.72;2.30;;;;;;;;;;5028581;28;20029;-79
2023/12/19 09:05:11;;;;;;;3.28;1.88;;;;;;;;;;5029187;28;20486;-79
2023/12/19 09:07:36;;;;;;;2.92;2.08;;;;;;;;;;5027507;28;20025;-79
2023/12/19 09:10:02;;;;;;;;;;;;;;;;;;5029799;28;20029;-79
2023/12/19 09:12:27;;;;;;;3.25;1.80;;;;;;;;;;5030108;28;20482;-79
2023/12/19 09:14:53;;;;;;;;;;;;;;;;;;5029752;28;20096;-79
2023/12/19 09:17:18;;;;;;;3.05;1.77;;;;;;;;;;5050605;28;19909;-79
2023/12/19 09:19:44;;;;;;;2.17;1.42;;;;;;;;;;5023886;28;20025;-79
2023/12/19 09:22:09;;;;;;;;;;;;;;;;;;5029294;28;20033;-79
2023/12/19 09:24:35;;;;;;;2.10;1.50;;;;;;;;;;5031988;28;19920;-79
2023/12/19 09:27:01;;;;;;;2.72;1.60;;;;;;;;;;5033503;28;20025;-78
2023/12/19 09:29:27;;;;;;;2.10;1.40;;;;;;;;;;5012683;28;20064;-79
2023/12/19 09:31:52;;;;;;;;;;;;;;;;;;5034038;28;20137;-79
2023/12/19 09:34:21;;;;;;;2.97;1.80;;;;;;;;;;5031339;28;20012;-79
2023/12/19 09:36:46;;;;;;;2.05;1.40;;;;;;;;;;5032012;28;20409;-79
2023/12/19 09:39:14;;;;;;;2.40;1.40;;;;;;;;;;5032837;28;20040;-78
2023/12/19 09:41:41;;;;;;;2.47;1.65;;;;;;;;;;5032330;28;20056;-78
2023/12/19 09:44:06;;;;;;;3.55;1.30;;;;;;;;;;5032092;28;20492;-78
2023/12/19 09:46:33;;;;;;;;;;;;;;;;;;5033655;28;20128;-79
2023/12/19 09:48:59;;;;;;;2.80;1.67;;;;;;;;;;5056256;28;19913;-79
2023/12/19 09:51:26;;;;;;;2.22;1.40;;;;;;;;;;5015392;28;20029;-78
2023/12/19 09:53:54;;;;;;;2.90;1.70;;;;;;;;;;5029854;28;20558;-78
2023/12/19 09:56:19;;;;;;;2.25;1.52;;;;;;;;;;5030664;28;20033;-78
2023/12/19 09:58:45;;;;;;;;;;;;;;;;;;5029272;28;20120;-78
2023/12/19 10:01:10;;;;;;;3.10;1.50;;;;;;;;;;5053394;28;20257;-78
2023/12/19 10:03:36;;;;;;;2.25;1.55;;;;;;;;;;5031851;28;20029;-79
2023/12/19 10:06:01;;;;;;;2.80;1.40;;;;;;;;;;5032195;28;20465;-78
2023/12/19 10:08:27;;;;;;;3.15;1.60;;;;;;;;;;5014737;28;20123;-78
2023/12/19 10:10:53;;;;;;;4.45;1.73;;;;;;;;;;5011761;28;20042;-79
2023/12/19 10:13:25;;;;;;;2.83;1.50;;;;;;;;;;5048161;28;20032;-79
2023/12/19 10:16:06;;;;;;;2.25;1.60;;;;;;;;;;5032096;28;20555;-79
2023/12/19 10:18:32;;;;;;;2.55;1.60;;;;;;;;;;5031274;28;20041;-79
2023/12/19 10:20:57;;;;;;;;;;;;;;;;;;5013311;28;20037;-79
2023/12/19 10:23:23;;;;;;;3.20;1.70;;;;;;;;;;5031285;28;19913;-79
2023/12/19 10:25:51;;;;;;;3.40;1.88;;;;;;;;;;5019799;28;20037;-78
2023/12/19 10:28:17;;;;;;;4.28;1.98;;;;;;;;;;5031703;28;20037;-78
2023/12/19 10:30:42;;;;;;;;;;;;;;;;;;5032627;28;20109;-78
2023/12/19 10:33:08;;;;;;;3.15;2.00;;;;;;;;;;5046853;28;20360;-78
2023/12/19 10:35:40;;;;;;;3.97;2.20;;;;;;;;;;5027255;28;20382;-78
2023/12/19 10:38:06;;;;;;;2.58;1.73;;;;;;;;;;5028573;28;20048;-78
2023/12/19 10:40:31;;;;;;;;;;;;;;;;;;5027668;28;20139;-79
2023/12/19 10:42:57;;;;;;;3.65;1.90;;;;;;;;;;5058905;28;19913;-79
2023/12/19 10:45:23;;;;;;;2.33;1.50;;;;;;;;;;5030107;28;20443;-79
2023/12/19 10:47:48;;;;;;;2.40;1.52;;;;;;;;;;5013902;28;20476;-79
2023/12/19 10:50:13;;;;;;;;;;;;;;;;;;5028501;28;20104;-77
2023/12/19 10:52:39;;;;;;;3.05;1.65;;;;;;;;;;5047217;28;19913;-78
2023/12/19 10:55:05;;;;;;;2.35;1.50;;;;;;;;;;5017596;28;20021;-78
2023/12/19 10:57:30;;;;;;;;;;;;;;;;;;5030743;28;20037;-79
2023/12/19 11:00:17;;;;;;;2.75;1.30;;;;;;;;;;5048302;28;19909;-80
2023/12/19 11:02:49;;;;;;;3.08;1.40;;;;;;;;;;5022433;28;20037;-79
2023/12/19 11:05:23;;;;;;;3.45;1.75;;;;;;;;;;5031062;28;20510;-78
2023/12/19 11:07:49;;;;;;;2.47;1.65;;;;;;;;;;5030508;28;20044;-78
2023/12/19 11:10:15;;;;;;;;;;;;;;;;;;5011104;28;20476;-79
2023/12/19 11:12:41;;;;;;;5.28;1.83;;;;;;;;;;5023799;28;19963;-79
2023/12/19 11:15:06;;;;;;;;;;;;;;;;;;5028523;28;20024;-79
2023/12/19 11:17:35;;;;;;;3.03;1.70;;;;;;;;;;5022482;28;19917;-78
2023/12/19 11:20:13;;;;;;;3.50;2.00;;;;;;;;;;5028002;28;20063;-79
2023/12/19 11:22:48;;;;;;;4.60;2.22;;;;;;;;;;5019579;28;20060;-79
2023/12/19 11:25:29;;;;;;;4.87;2.00;;;;;;;;;;5028512;28;20033;-79
2023/12/19 11:27:58;;;;;;;7.63;2.65;;;;;;;;;;5031145;28;20041;-78
2023/12/19 11:30:35;;;;;;;5.43;2.50;;;;;;;;;;5026629;28;20053;-79
2023/12/19 11:33:00;;;;;;;6.35;2.42;;;;;;;;;;5028355;28;20034;-79
2023/12/19 11:35:26;;;;;;;;;;;;;;;;;;5029990;28;20018;-79
2023/12/19 11:37:51;;;;;;;6.18;2.72;;;;;;;;;;5031158;28;20020;-79
2023/12/19 11:40:35;;;;;;;6.55;2.25;;;;;;;;;;5029524;28;20120;-78
2023/12/19 11:43:01;;;;;;;6.85;2.40;;;;;;;;;;5029591;28;20037;-78
2023/12/19 11:45:26;;;;;;;;;;;;;;;;;;5031235;28;20072;-78
2023/12/19 11:47:52;;;;;;;6.22;2.40;;;;;;;;;;5031536;28;19921;-79
2023/12/19 11:50:17;;;;;;;;;;;;;;;;;;5031366;28;20021;-78
2023/12/19 11:52:42;;;;;;;6.75;2.40;;;;;;;;;;5030676;28;19920;-79
2023/12/19 11:55:08;;;;;;;7.90;2.53;;;;;;;;;;5029520;28;20025;-78
2023/12/19 11:57:33;;;;;;;5.85;2.70;;;;;;;;;;5030757;28;20041;-78
2023/12/19 11:59:59;;;;;;;;;;;;;;;;;;5012133;28;20045;-79
2023/12/19 12:02:28;;;;;;;4.80;2.60;;;;;;;;;;5030530;28;19912;-78
2023/12/19 12:05:03;;;;;;;5.63;3.17;;;;;;;;;;5031159;28;20112;-79
2023/12/19 12:07:29;;;;;;;5.00;2.80;;;;;;;;;;5030697;28;20045;-79
2023/12/19 12:09:55;;;;;;;;;;;;;;;;;;5012088;28;20025;-79
2023/12/19 12:12:29;;;;;;;4.95;2.40;;;;;;;;;;5030783;28;20007;-78
2023/12/19 12:15:04;;;;;;;4.72;2.80;;;;;;;;;;5012274;28;20030;-78
2023/12/19 12:17:32;;;;;;;5.85;2.70;;;;;;;;;;5012562;28;20132;-79
2023/12/19 12:19:57;;;;;;;5.38;3.00;;;;;;;;;;5029824;28;20029;-79
2023/12/19 12:22:24;;;;;;;;;;;;;;;;;;5029279;28;20044;-78
2023/12/19 12:24:53;;;;;;;4.60;2.78;;;;;;;;;;5044884;28;19919;-78
2023/12/19 12:27:18;;;;;;;4.50;2.65;;;;;;;;;;5029488;28;20207;-78
2023/12/19 12:29:44;;;;;;;;;;;;;;;;;;5025436;28;20096;-79
2023/12/19 12:32:09;;;;;;;11.23;6.53;;;;;;;;;;5030140;28;19913;-79
2023/12/19 12:34:34;;;;;;;;;;;;;;;;;;5029261;28;20081;-79
2023/12/19 12:37:00;;;;;;;11.20;6.13;;;;;;;;;;5028982;28;19968;-78
2023/12/19 12:39:25;;;;;;;8.63;4.75;;;;;;;;;;5029008;28;20120;-79
2023/12/19 12:41:59;;;;;;;5.40;3.05;;;;;;;;;;5030406;28;20454;-79
2023/12/19 12:44:25;;;;;;;4.78;2.80;;;;;;;;;;5029218;28;20116;-79
2023/12/19 12:46:51;;;;;;;6.90;3.00;;;;;;;;;;5029704;28;20029;-78
2023/12/19 12:49:16;;;;;;;;;;;;;;;;;;5026865;28;20029;-76
2023/12/19 12:51:43;;;;;;;4.93;2.53;;;;;;;;;;5027578;28;19919;-78
2023/12/19 12:54:08;;;;;;;4.35;2.33;;;;;;;;;;5030272;28;20065;-79
2023/12/19 12:56:34;;;;;;;;;;;;;;;;;;5029681;28;20022;-79
2023/12/19 12:59:00;;;;;;;4.50;1.80;;;;;;;;;;5056650;28;19914;-79
2023/12/19 13:01:25;;;;;;;3.33;1.73;;;;;;;;;;5007371;28;20116;-79
2023/12/19 13:03:51;;;;;;;;;;;;;;;;;;5034557;28;20561;-78
2023/12/19 13:06:17;;;;;;;2.47;1.50;;;;;;;;;;5032548;28;19912;-78
2023/12/19 13:08:42;;;;;;;2.92;1.58;;;;;;;;;;5031285;28;20045;-78
2023/12/19 13:11:08;;;;;;;2.78;1.60;;;;;;;;;;5028861;28;20034;-79
2023/12/19 13:13:34;;;;;;;2.13;1.40;;;;;;;;;;5028372;28;20503;-79
2023/12/19 13:16:00;;;;;;;;;;;;;;;;;;5005298;28;20120;-79
2023/12/19 13:18:26;;;;;;;3.55;1.60;;;;;;;;;;5048792;28;19913;-79
2023/12/19 13:20:51;;;;;;;1.88;1.23;;;;;;;;;;5026065;28;20041;-79
2023/12/19 13:23:17;;;;;;;2.65;1.45;;;;;;;;;;5032303;28;20030;-79
2023/12/19 13:25:44;;;;;;;2.78;1.60;;;;;;;;;;5028477;28;20048;-79
2023/12/19 13:28:13;;;;;;;1.70;1.25;;;;;;;;;;5030124;28;20033;-78
2023/12/19 13:30:39;;;;;;;3.28;1.40;;;;;;;;;;5032657;28;20017;-79
2023/12/19 13:33:05;;;;;;;5.78;1.63;;;;;;;;;;5027676;28;20400;-79
2023/12/19 13:35:30;;;;;;;;;;;;;;;;;;5030559;28;20040;-80
2023/12/19 13:37:55;;;;;;;1.60;1.10;;;;;;;;;;5033325;28;19952;-78
2023/12/19 13:40:21;;;;;;;;;;;;;;;;;;5029230;28;20065;-79
2023/12/19 13:42:46;;;;;;;1.63;1.00;;;;;;;;;;5032767;28;19979;-78
2023/12/19 13:45:11;;;;;;;;;;;;;;;;;;5033316;28;20431;-78
2023/12/19 13:47:37;;;;;;;1.45;1.00;;;;;;;;;;5032879;28;19917;-80
2023/12/19 13:50:04;;;;;;;1.75;1.00;;;;;;;;;;5015026;28;20021;-79
2023/12/19 13:52:30;;;;;;;2.13;1.13;;;;;;;;;;5029032;28;20116;-79
2023/12/19 13:54:55;;;;;;;;;;;;;;;;;;5033243;28;20647;-79
2023/12/19 13:57:20;;;;;;;1.58;1.02;;;;;;;;;;5060420;28;19949;-79
2023/12/19 13:59:46;;;;;;;1.63;1.08;;;;;;;;;;5019517;28;20116;-79
2023/12/19 14:02:14;;;;;;;2.50;1.20;;;;;;;;;;5028646;28;20072;-79
2023/12/19 14:04:40;;;;;;;1.45;1.10;;;;;;;;;;5026920;28;20116;-79
2023/12/19 14:07:05;;;;;;;;;;;;;;;;;;5028746;28;20120;-79
2023/12/19 14:09:31;;;;;;;1.52;1.10;;;;;;;;;;5025107;28;19916;-79
2023/12/19 14:11:56;;;;;;;;;;;;;;;;;;5021611;28;20437;-79
2023/12/19 14:14:22;;;;;;;4.10;1.30;;;;;;;;;;5020296;28;19941;-79
2023/12/19 14:16:48;;;;;;;;;;;;;;;;;;5002908;28;20034;-79
2023/12/19 14:19:13;;;;;;;1.90;1.15;;;;;;;;;;5029713;28;20334;-78
2023/12/19 14:21:39;;;;;;;1.58;1.17;;;;;;;;;;5031150;28;20034;-78
2023/12/19 14:24:05;;;;;;;;;;;;;;;;;;5031273;28;20045;-78
2023/12/19 14:26:30;;;;;;;2.33;1.40;;;;;;;;;;5029809;28;19917;-79
2023/12/19 14:28:57;;;;;;;2.10;1.30;;;;;;;;;;5032355;28;20029;-78
2023/12/19 14:31:23;;;;;;;2.17;1.27;;;;;;;;;;5032574;28;20381;-80
2023/12/19 14:33:49;;;;;;;;;;;;;;;;;;5032791;28;20040;-78
2023/12/19 14:36:15;;;;;;;4.63;1.35;;;;;;;;;;5030167;28;20019;-79
2023/12/19 14:38:41;;;;;;;1.92;1.38;;;;;;;;;;5031176;28;20038;-78
2023/12/19 14:41:06;;;;;;;;;;;;;;;;;;5031423;28;20048;-78
2023/12/19 14:43:32;;;;;;;2.00;1.50;;;;;;;;;;5031636;28;19913;-79
2023/12/19 14:45:57;;;;;;;2.55;1.70;;;;;;;;;;5031723;28;20484;-79
2023/12/19 14:48:23;;;;;;;2.30;1.60;;;;;;;;;;5019645;28;20026;-79
2023/12/19 14:50:48;;;;;;;;;;;;;;;;;;5014655;28;20068;-79
2023/12/19 14:53:14;;;;;;;2.30;1.60;;;;;;;;;;5031188;28;19927;-78
2023/12/19 14:55:39;;;;;;;3.33;2.00;;;;;;;;;;5024259;28;20125;-77
2023/12/19 14:58:07;;;;;;;2.50;1.70;;;;;;;;;;5030616;28;20029;-80
2023/12/19 15:00:33;;;;;;;2.65;2.05;;;;;;;;;;5027459;28;20038;-78
2023/12/19 15:02:59;;;;;;;3.13;2.00;;;;;;;;;;5022686;28;20033;-79
2023/12/19 15:05:26;;;;;;;;;;;;;;;;;;5019794;28;20075;-77
2023/12/19 15:07:51;;;;;;;3.50;1.60;;;;;;;;;;5031533;28;19920;-79
2023/12/19 15:10:16;;;;;;;;;;;;;;;;;;5032012;28;20025;-78
2023/12/19 15:12:42;;;;;;;2.80;1.67;;;;;;;;;;5024182;28;19917;-77
2023/12/19 15:15:07;;;;;;;2.08;1.50;;;;;;;;;;5022442;28;20032;-78
2023/12/19 15:17:33;;;;;;;;;;;;;;;;;;5022741;28;20033;-79
2023/12/19 15:19:58;;;;;;;2.97;2.22;;;;;;;;;;5031478;28;20028;-80
2023/12/19 15:22:24;;;;;;;2.08;1.30;;;;;;;;;;5026967;28;20074;-79
2023/12/19 15:24:49;;;;;;;;;;;;;;;;;;5030785;28;20037;-79
2023/12/19 15:27:16;;;;;;;2.53;1.58;;;;;;;;;;5032223;28;19913;-83
2023/12/19 15:29:41;;;;;;;2.10;1.52;;;;;;;;;;5021056;28;20026;-80
2023/12/19 15:32:06;;;;;;;;;;;;;;;;;;5016105;28;20556;-80
2023/12/19 15:34:32;;;;;;;2.30;1.17;;;;;;;;;;5024226;28;19967;-80
2023/12/19 15:36:57;;;;;;;;;;;;;;;;;;5015933;28;20085;-79
2023/12/19 15:39:23;;;;;;;3.28;1.85;;;;;;;;;;5015089;28;19946;-78
2023/12/19 15:41:48;;;;;;;;;;;;;;;;;;5023375;28;20024;-80
2023/12/19 15:44:14;;;;;;;2.28;1.40;;;;;;;;;;5014452;28;19979;-79
2023/12/19 15:46:39;;;;;;;2.00;1.38;;;;;;;;;;5020085;28;20061;-80
2023/12/19 15:49:05;;;;;;;2.95;1.20;;;;;;;;;;5025617;28;20029;-80
2023/12/19 15:51:31;;;;;;;1.75;1.30;;;;;;;;;;5013582;28;20033;-79
2023/12/19 15:54:01;;;;;;;;;;;;;;;;;;5012818;28;20029;-78
2023/12/19 15:56:28;;;;;;;1.88;1.17;;;;;;;;;;5021808;28;19913;-79
2023/12/19 15:58:55;;;;;;;1.92;1.30;;;;;;;;;;5021284;28;20408;-79
2023/12/19 16:01:21;;;;;;;2.08;1.50;;;;;;;;;;5019999;28;20396;-79
2023/12/19 16:03:46;;;;;;;;;;;;;;;;;;5027106;28;20036;-80
2023/12/19 16:06:12;;;;;;;1.70;1.10;;;;;;;;;;5049355;28;20359;-80
2023/12/19 16:08:44;;;;;;;1.40;1.20;;;;;;;;;;5018822;28;20033;-80
2023/12/19 16:11:10;;;;;;;1.77;1.30;;;;;;;;;;5029896;28;20091;-80
2023/12/19 16:13:35;;;;;;;;;;;;;;;;;;5030967;28;20443;-80
2023/12/19 16:16:00;;;;;;;6.05;3.03;;;;;;;;;;5022682;28;19913;-79
2023/12/19 16:18:27;;;;;;;2.58;1.40;;;;;;;;;;5030922;28;20021;-79
2023/12/19 16:20:53;;;;;;;;;;;;;;;;;;5029050;28;20044;-80
2023/12/19 16:23:18;;;;;;;1.95;1.40;;;;;;;;;;5030940;28;19908;-80
2023/12/19 16:25:44;;;;;;;2.08;1.55;;;;;;;;;;5024232;28;20062;-79
2023/12/19 16:28:10;;;;;;;2.80;1.60;;;;;;;;;;5029261;28;20018;-80
2023/12/19 16:30:36;;;;;;;2.28;1.70;;;;;;;;;;5010802;28;20041;-79
2023/12/19 16:33:01;;;;;;;;;;;;;;;;;;5031111;28;20507;-81
2023/12/19 16:35:27;;;;;;;2.33;1.50;;;;;;;;;;5030774;28;20388;-81
2023/12/19 16:37:52;;;;;;;;;;;;;;;;;;5030507;28;20403;-81
2023/12/19 16:40:17;;;;;;;2.80;2.00;;;;;;;;;;5030728;28;19913;-82
2023/12/19 16:42:45;;;;;;;;;;;;;;;;;;5029519;28;20487;-79
2023/12/19 16:45:11;;;;;;;3.05;1.98;;;;;;;;;;5020097;28;20371;-80
2023/12/19 16:47:36;;;;;;;3.33;2.33;;;;;;;;;;5021016;28;20029;-80
2023/12/19 16:50:02;;;;;;;3.10;2.13;;;;;;;;;;5030979;28;20048;-80
2023/12/19 16:52:27;;;;;;;3.97;2.20;;;;;;;;;;5038094;28;20029;-81
2023/12/19 16:54:53;;;;;;;3.63;2.63;;;;;;;;;;4988819;28;20030;-79
2023/12/19 16:57:19;;;;;;;;;;;;;;;;;;5003663;28;20072;-79
2023/12/19 16:59:46;;;;;;;3.20;2.20;;;;;;;;;;5044998;28;19956;-80
2023/12/19 17:02:11;;;;;;;3.83;2.40;;;;;;;;;;5024617;28;20030;-79
2023/12/19 17:04:37;;;;;;;3.55;2.67;;;;;;;;;;5014567;28;20041;-79
2023/12/19 17:07:04;;;;;;;3.78;2.60;;;;;;;;;;5029059;28;20089;-80
2023/12/19 17:09:30;;;;;;;3.20;2.53;;;;;;;;;;5020499;28;20037;-80
2023/12/19 17:11:55;;;;;;;;;;;;;;;;;;5019745;28;20067;-79
2023/12/19 17:14:21;;;;;;;3.80;2.67;;;;;;;;;;5019158;28;20007;-80
2023/12/19 17:16:46;;;;;;;3.22;2.47;;;;;;;;;;5020784;28;20074;-79
2023/12/19 17:19:12;;;;;;;4.60;2.38;;;;;;;;;;5018999;28;20077;-80
2023/12/19 17:21:37;;;;;;;3.08;2.33;;;;;;;;;;5024808;28;20034;-80
2023/12/19 17:24:03;;;;;;;3.10;2.60;;;;;;;;;;5025622;28;20038;-80
2023/12/19 17:26:29;;;;;;;4.00;2.60;;;;;;;;;;5024150;28;20037;-81
2023/12/19 17:28:55;;;;;;;5.75;2.40;;;;;;;;;;5025091;28;20109;-81
2023/12/19 17:31:20;;;;;;;;;;;;;;;;;;5021041;28;20159;-80
2023/12/19 17:33:46;;;;;;;3.33;2.20;;;;;;;;;;5021251;28;19913;-80
2023/12/19 17:36:12;;;;;;;3.25;2.47;;;;;;;;;;5025006;28;20088;-81
2023/12/19 17:38:37;;;;;;;;;;;;;;;;;;5010185;28;20103;-79
2023/12/19 17:41:03;;;;;;;3.20;2.58;;;;;;;;;;5024096;28;19917;-80
2023/12/19 17:43:28;;;;;;;3.45;2.30;;;;;;;;;;5029780;28;20041;-81
2023/12/19 17:45:53;;;;;;;;;;;;;;;;;;5025093;28;20068;-81
2023/12/19 17:48:19;;;;;;;3.38;2.60;;;;;;;;;;5024783;28;20004;-79
2023/12/19 17:50:44;;;;;;;3.97;2.70;;;;;;;;;;5023195;28;20413;-80
2023/12/19 17:53:10;;;;;;;;;;;;;;;;;;5023154;28;20045;-80
2023/12/19 17:55:35;;;;;;;3.97;2.30;;;;;;;;;;5018492;28;19916;-79
2023/12/19 17:58:01;;;;;;;3.45;2.65;;;;;;;;;;5022594;28;20033;-80
2023/12/19 18:00:26;;;;;;;;;;;;;;;;;;5030869;28;20435;-81
2023/12/19 18:02:53;;;;;;;3.38;2.50;;;;;;;;;;5049838;28;19917;-80
2023/12/19 18:05:18;;;;;;;7.60;2.63;;;;;;;;;;5023150;28;20021;-80
2023/12/19 18:07:44;;;;;;;;;;;;;;;;;;5023945;28;20038;-80
2023/12/19 18:10:09;;;;;;;4.13;2.63;;;;;;;;;;5021290;28;19940;-81
2023/12/19 18:12:35;;;;;;;3.17;2.60;;;;;;;;;;5026869;28;20492;-79
2023/12/19 18:15:00;;;;;;;3.63;2.72;;;;;;;;;;5028619;28;20556;-78
2023/12/19 18:17:26;;;;;;;;;;;;;;;;;;5028902;28;20365;-80
2023/12/19 18:19:51;;;;;;;3.88;2.38;;;;;;;;;;5024794;28;19960;-79
2023/12/19 18:22:17;;;;;;;3.88;2.05;;;;;;;;;;5014085;28;20041;-80
2023/12/19 18:24:42;;;;;;;3.22;2.25;;;;;;;;;;5046172;28;20084;-80
2023/12/19 18:27:09;;;;;;;;;;;;;;;;;;5030202;28;20037;-80
2023/12/19 18:29:34;;;;;;;4.38;2.20;;;;;;;;;;5025672;28;19913;-80
2023/12/19 18:32:00;;;;;;;2.92;1.88;;;;;;;;;;5019366;28;20492;-80
2023/12/19 18:34:25;;;;;;;3.00;2.00;;;;;;;;;;5051585;28;20026;-80
2023/12/19 18:36:51;;;;;;;;;;;;;;;;;;5023110;28;20523;-81
2023/12/19 18:39:17;;;;;;;2.67;2.00;;;;;;;;;;5029490;28;19920;-81
2023/12/19 18:41:42;;;;;;;;;;;;;;;;;;5027873;28;20041;-80
2023/12/19 18:44:08;;;;;;;3.30;2.30;;;;;;;;;;5032634;28;19908;-80
2023/12/19 18:46:37;;;;;;;3.15;2.40;;;;;;;;;;5019183;28;20060;-80
2023/12/19 18:49:02;;;;;;;2.88;2.20;;;;;;;;;;5026202;28;20060;-80
2023/12/19 18:51:29;;;;;;;;;;;;;;;;;;5031001;28;20060;-79
2023/12/19 18:53:55;;;;;;;3.28;2.38;;;;;;;;;;5022996;28;19928;-80
2023/12/19 18:56:21;;;;;;;3.10;2.20;;;;;;;;;;5026533;28;20038;-80
2023/12/19 18:58:46;;;;;;;3.30;2.20;;;;;;;;;;5018461;28;20375;-80
2023/12/19 19:01:12;;;;;;;3.42;2.00;;;;;;;;;;5023469;28;20049;-79
2023/12/19 19:03:39;;;;;;;2.90;2.10;;;;;;;;;;4997791;28;20048;-80
2023/12/19 19:06:05;;;;;;;3.72;2.03;;;;;;;;;;5026668;28;20144;-79
2023/12/19 19:08:30;;;;;;;;;;;;;;;;;;5027786;28;20128;-79
2023/12/19 19:10:56;;;;;;;3.08;2.05;;;;;;;;;;5027096;28;19948;-79
2023/12/19 19:13:21;;;;;;;3.20;1.88;;;;;;;;;;5018253;28;20029;-80
2023/12/19 19:15:47;;;;;;;2.90;1.90;;;;;;;;;;5027870;28;20041;-78
2023/12/19 19:18:13;;;;;;;2.95;1.95;;;;;;;;;;5021789;28;20033;-78
2023/12/19 19:20:41;;;;;;;;;;;;;;;;;;5020801;28;20037;-79
2023/12/19 19:23:12;;;;;;;3.20;2.28;;;;;;;;;;5021752;28;19910;-78
2023/12/19 19:25:38;;;;;;;2.70;2.00;;;;;;;;;;5047234;28;20033;-78
2023/12/19 19:28:03;;;;;;;;;;;;;;;;;;5030619;28;20399;-79
2023/12/19 19:30:29;;;;;;;2.70;2.03;;;;;;;;;;5031103;28;19913;-79
2023/12/19 19:32:54;;;;;;;3.05;1.95;;;;;;;;;;5031534;28;20070;-79
2023/12/19 19:35:21;;;;;;;2.70;2.03;;;;;;;;;;5013482;28;20404;-79
2023/12/19 19:37:47;;;;;;;2.83;2.00;;;;;;;;;;4997412;28;20091;-78
2023/12/19 19:40:12;;;;;;;;;;;;;;;;;;5027116;28;20037;-77